Time;durP1;ratioP1;P1;durP2;ratioP2;P2;SDS_P1;SDS_P2;PMS_P1;PMS_P2;Temp;Humidity;BMP_temperature;BMP_pressure;BME280_temperature;BME280_humidity;BME280_pressure;Samples;Min_cycle;Max_cycle;Signal;HPM_P1;HPM_P2
2023/02/21 02:14:26;;;;;;;;;;;;;;;9.21;65.52;100408.53;5008470;28;20321;-52
2023/02/21 02:17:04;;;;;;;;;;;;;;;10.30;57.58;100503.19;5019926;28;19964;-54
2023/02/21 02:19:39;;;;;;;;;;;;;;;10.66;58.61;100511.53;5023634;28;20260;-54
2023/02/21 02:22:10;;;;;;;;;;;;;;;10.43;58.99;100499.69;5017793;28;19945;-54
2023/02/21 02:24:36;;;;;;;;;;;;;;;10.58;59.09;100508.16;4976720;28;19926;-54
2023/02/21 02:27:13;;;;;;;;;;;;;;;10.42;59.33;100492.84;4979858;28;19933;-55
2023/02/21 02:29:44;;;;;;;;;;;;;;;10.32;62.60;100468.00;4978997;28;19993;-54
2023/02/21 02:32:21;;;;;;;;;;;;;;;10.33;63.51;100453.41;5015745;28;19921;-55
2023/02/21 02:34:53;;;;;;;;;;;;;;;11.26;60.47;100493.75;4979776;28;20375;-54
2023/02/21 02:37:28;;;;;;;;;;;;;;;9.83;67.35;100399.69;5016138;28;19929;-54
2023/02/21 02:39:53;;;;;;;;;;;;;;;9.53;62.25;100431.53;4977948;28;20012;-54
2023/02/21 02:42:21;;;;;;;;;;;;;;;10.32;55.63;100521.22;4979694;28;20072;-53
2023/02/21 02:44:51;;;;;;;;;;;;;;;9.54;58.85;100505.28;4978829;28;20290;-54
2023/02/21 02:47:18;;;;;;;;;;;;;;;9.51;58.44;100531.03;5014971;28;19960;-54
2023/02/21 02:49:43;;;;;;;;;;;;;;;10.12;57.54;100572.78;4979918;28;19922;-53
2023/02/21 02:52:08;;;;;;;;;;;;;;;9.35;61.96;100534.47;5018570;28;19946;-54
2023/02/21 02:54:33;;;;;;;;;;;;;;;10.20;57.89;100631.09;4979127;28;19971;-54
2023/02/21 02:56:59;;;;;;;;;;;;;;;10.14;61.64;100609.69;4978415;28;20367;-53
2023/02/21 02:59:25;;;;;;;;;;;;;;;10.71;60.53;100602.53;5015892;28;19921;-53
2023/02/21 03:01:57;;;;;;;;;;;;;;;9.95;63.75;100521.41;5012086;28;19917;-52
2023/02/21 03:04:40;;;;;;;;;;;;;;;10.57;61.45;100538.22;4979020;28;19925;-53
2023/02/21 03:07:21;;;;;;;;;;;;;;;9.53;66.78;100439.25;4978379;28;19932;-55
2023/02/21 03:09:46;;;;;;;;;;;;;;;10.15;62.24;100485.22;4977806;28;19984;-53
2023/02/21 03:12:30;;;;;;;;;;;;;;;9.97;62.45;100479.34;4978780;28;19926;-55
2023/02/21 03:14:55;;;;;;;;;;;;;;;9.79;66.22;100446.00;4979443;28;19933;-54
2023/02/21 03:17:21;;;;;;;;;;;;;;;9.62;62.66;100457.25;4982097;28;19921;-54
2023/02/21 03:19:47;;;;;;;;;;;;;;;10.55;57.64;100528.78;4982157;28;19926;-54
2023/02/21 03:22:13;;;;;;;;;;;;;;;10.98;60.15;100521.56;5021200;28;20390;-54
2023/02/21 03:24:39;;;;;;;;;;;;;;;10.56;65.70;100450.63;5019713;28;19979;-54
2023/02/21 03:27:04;;;;;;;;;;;;;;;10.62;64.25;100450.59;5018902;28;19922;-54
2023/02/21 03:29:30;;;;;;;;;;;;;;;9.34;66.71;100376.78;5019549;28;19932;-54
2023/02/21 03:31:57;;;;;;;;;;;;;;;10.36;60.02;100477.41;5015228;28;20434;-54
2023/02/21 03:34:23;;;;;;;;;;;;;;;10.07;58.87;100479.31;5021999;28;19922;-55
2023/02/21 03:36:48;;;;;;;;;;;;;;;10.96;59.24;100519.88;4981268;28;20382;-54
2023/02/21 03:39:13;;;;;;;;;;;;;;;11.17;61.15;100501.59;4981907;28;20013;-54
2023/02/21 03:41:38;;;;;;;;;;;;;;;10.03;68.50;100416.69;4981372;28;19926;-54
2023/02/21 03:44:04;;;;;;;;;;;;;;;9.66;66.27;100400.63;4981077;28;20696;-54
2023/02/21 03:46:29;;;;;;;;;;;;;;;10.37;59.77;100471.38;4981274;28;19929;-54
2023/02/21 03:48:54;;;;;;;;;;;;;;;11.13;60.06;100510.25;4983849;28;20009;-53
2023/02/21 03:51:19;;;;;;;;;;;;;;;10.34;67.81;100427.63;4986802;28;19925;-53
2023/02/21 03:53:45;;;;;;;;;;;;;;;10.17;64.10;100430.34;4981186;28;19922;-54
2023/02/21 03:56:10;;;;;;;;;;;;;;;10.11;63.71;100444.97;4981033;28;19929;-54
2023/02/21 03:58:35;;;;;;;;;;;;;;;10.43;64.13;100458.47;4981020;28;19973;-54
2023/02/21 04:01:00;;;;;;;;;;;;;;;10.38;65.18;100443.94;4997634;28;19922;-52
2023/02/21 04:03:25;;;;;;;;;;;;;;;10.00;64.43;100438.16;4981955;28;19917;-55
2023/02/21 04:05:51;;;;;;;;;;;;;;;9.69;64.82;100432.31;4981183;28;20425;-54
2023/02/21 04:08:16;;;;;;;;;;;;;;;9.52;62.91;100450.44;4980690;28;20673;-53
2023/02/21 04:10:41;;;;;;;;;;;;;;;10.65;56.82;100531.28;4981129;28;19921;-53
2023/02/21 04:13:08;;;;;;;;;;;;;;;10.23;60.85;100496.34;4980913;28;19949;-52
2023/02/21 04:15:33;;;;;;;;;;;;;;;10.63;59.62;100520.13;4980867;28;19921;-54
2023/02/21 04:17:58;;;;;;;;;;;;;;;10.66;58.53;100521.84;4980803;28;19949;-51
2023/02/21 04:20:23;;;;;;;;;;;;;;;9.87;65.75;100451.94;4980384;28;19922;-54
2023/02/21 04:22:49;;;;;;;;;;;;;;;9.74;60.51;100465.75;4981105;28;19929;-54
2023/02/21 04:25:14;;;;;;;;;;;;;;;10.09;59.97;100493.03;4980711;28;19965;-53
2023/02/21 04:27:39;;;;;;;;;;;;;;;9.78;59.62;100490.59;4979537;28;19958;-52
2023/02/21 04:30:04;;;;;;;;;;;;;;;10.72;56.79;100564.72;4980934;28;19917;-54
2023/02/21 04:32:30;;;;;;;;;;;;;;;10.72;59.54;100526.06;4981121;28;19924;-51
2023/02/21 04:34:55;;;;;;;;;;;;;;;10.58;61.98;100503.00;4981260;28;20192;-54
2023/02/21 04:37:21;;;;;;;;;;;;;;;10.88;64.18;100487.28;4980633;28;21116;-54
2023/02/21 04:39:46;;;;;;;;;;;;;;;10.37;67.34;100432.75;4980677;28;20039;-53
2023/02/21 04:42:11;;;;;;;;;;;;;;;10.52;67.09;100431.78;4979810;28;20008;-54
2023/02/21 04:44:37;;;;;;;;;;;;;;;10.33;67.28;100425.94;4977474;28;20002;-53
2023/02/21 04:47:02;;;;;;;;;;;;;;;11.47;64.57;100472.06;4980063;28;20021;-54
2023/02/21 04:49:27;;;;;;;;;;;;;;;10.63;74.02;100385.34;4981362;28;20363;-54
2023/02/21 04:51:53;;;;;;;;;;;;;;;10.37;76.58;100340.06;4981122;28;19918;-54
2023/02/21 04:54:18;;;;;;;;;;;;;;;10.01;76.07;100326.63;4985988;28;19926;-52
2023/02/21 04:56:43;;;;;;;;;;;;;;;10.77;69.22;100396.34;4980050;28;19965;-54
2023/02/21 04:59:09;;;;;;;;;;;;;;;10.16;72.20;100365.97;5017745;28;19922;-54
2023/02/21 05:01:34;;;;;;;;;;;;;;;10.63;66.57;100411.09;5024729;28;20397;-52
2023/02/21 05:03:59;;;;;;;;;;;;;;;10.54;66.42;100418.91;5026726;28;19918;-54
2023/02/21 05:06:25;;;;;;;;;;;;;;;10.79;70.35;100407.50;4979641;28;19961;-54
2023/02/21 05:08:50;;;;;;;;;;;;;;;11.33;68.51;100416.31;4980131;28;19921;-52
2023/02/21 05:11:16;;;;;;;;;;;;;;;10.80;73.53;100365.38;4980466;28;20892;-54
2023/02/21 05:13:41;;;;;;;;;;;;;;;10.70;72.97;100352.59;4979646;28;20004;-52
2023/02/21 05:16:07;;;;;;;;;;;;;;;10.08;75.05;100335.16;4979747;28;19933;-54
2023/02/21 05:18:33;;;;;;;;;;;;;;;10.61;71.78;100361.31;4979812;28;19918;-54
2023/02/21 05:20:58;;;;;;;;;;;;;;;11.48;69.96;100406.66;4995961;28;19929;-52
2023/02/21 05:23:33;;;;;;;;;;;;;;;11.06;75.76;100356.47;4979870;28;20428;-54
2023/02/21 05:26:18;;;;;;;;;;;;;;;10.64;78.69;100302.00;4979410;28;20028;-52
2023/02/21 05:28:43;;;;;;;;;;;;;;;11.32;79.65;100322.63;4979954;28;20786;-52
2023/02/21 05:31:08;;;;;;;;;;;;;;;11.22;80.57;100295.25;4980046;28;19925;-54
2023/02/21 05:33:34;;;;;;;;;;;;;;;11.17;79.13;100290.16;4979454;28;20883;-54
2023/02/21 05:35:59;;;;;;;;;;;;;;;11.04;78.38;100301.53;4979724;28;20390;-54
2023/02/21 05:38:25;;;;;;;;;;;;;;;11.05;80.39;100291.19;4979085;28;20394;-54
2023/02/21 05:40:50;;;;;;;;;;;;;;;10.44;78.74;100269.59;4979926;28;19922;-54
2023/02/21 05:43:15;;;;;;;;;;;;;;;10.10;75.30;100299.94;4979265;28;20044;-54
2023/02/21 05:45:40;;;;;;;;;;;;;;;10.70;71.54;100355.19;4980282;28;20390;-54
2023/02/21 05:48:06;;;;;;;;;;;;;;;10.89;72.09;100360.13;4978790;28;19922;-51
2023/02/21 05:50:31;;;;;;;;;;;;;;;11.08;73.17;100347.88;4979396;28;19952;-51
2023/02/21 05:52:57;;;;;;;;;;;;;;;10.82;74.16;100327.56;4978896;28;19932;-53
2023/02/21 05:55:22;;;;;;;;;;;;;;;10.64;73.73;100317.47;5011586;28;19922;-53
2023/02/21 05:57:47;;;;;;;;;;;;;;;11.07;73.53;100337.56;4978988;28;20322;-51
2023/02/21 06:00:23;;;;;;;;;;;;;;;10.87;73.60;100323.19;4977565;28;19929;-51
2023/02/21 06:02:49;;;;;;;;;;;;;;;10.88;74.86;100317.19;4978796;28;20338;-54
2023/02/21 06:05:15;;;;;;;;;;;;;;;10.59;73.62;100304.63;4978330;28;19929;-55
2023/02/21 06:07:40;;;;;;;;;;;;;;;11.00;71.77;100335.94;5013140;28;19921;-54
2023/02/21 06:10:05;;;;;;;;;;;;;;;11.01;72.84;100332.50;4979234;28;19921;-54
2023/02/21 06:12:30;;;;;;;;;;;;;;;10.75;74.56;100307.88;4979767;28;19922;-52
2023/02/21 06:14:56;;;;;;;;;;;;;;;10.83;75.83;100308.66;4979316;28;19936;-52
2023/02/21 06:17:21;;;;;;;;;;;;;;;10.99;73.21;100311.03;4999626;28;19929;-53
2023/02/21 06:19:46;;;;;;;;;;;;;;;10.66;76.40;100285.66;4980061;28;19926;-53
2023/02/21 06:22:11;;;;;;;;;;;;;;;10.41;73.39;100292.81;4982430;28;19940;-53
2023/02/21 06:24:37;;;;;;;;;;;;;;;10.71;70.29;100328.56;4981252;28;20017;-52
2023/02/21 06:27:02;;;;;;;;;;;;;;;10.59;70.96;100345.84;4978777;28;19921;-53
2023/02/21 06:29:27;;;;;;;;;;;;;;;10.46;67.85;100349.41;4979890;28;19929;-52
2023/02/21 06:31:59;;;;;;;;;;;;;;;11.06;68.83;100374.53;4980724;28;20403;-54
2023/02/21 06:34:24;;;;;;;;;;;;;;;11.19;71.31;100347.72;4981836;28;20859;-53
2023/02/21 06:36:53;;;;;;;;;;;;;;;11.16;77.01;100311.69;4978591;28;19921;-54
2023/02/21 06:39:18;;;;;;;;;;;;;;;11.10;76.86;100285.97;4979482;28;19926;-53
2023/02/21 06:41:43;;;;;;;;;;;;;;;11.49;74.00;100317.22;4979044;28;19933;-51
2023/02/21 06:44:09;;;;;;;;;;;;;;;11.34;77.80;100286.53;4978607;28;19922;-54
2023/02/21 06:46:36;;;;;;;;;;;;;;;10.71;79.90;100251.25;4984009;28;19944;-51
2023/02/21 06:49:01;;;;;;;;;;;;;;;10.75;76.77;100276.97;4979248;28;19964;-54
2023/02/21 06:51:29;;;;;;;;;;;;;;;11.26;75.01;100308.09;4982981;28;20363;-53
2023/02/21 06:53:55;;;;;;;;;;;;;;;11.13;75.83;100296.25;4982645;28;20000;-53
2023/02/21 06:56:21;;;;;;;;;;;;;;;11.17;75.04;100309.94;5015089;28;20028;-54
2023/02/21 06:58:46;;;;;;;;;;;;;;;10.97;76.97;100284.41;4980659;28;19997;-54
2023/02/21 07:01:11;;;;;;;;;;;;;;;11.17;77.28;100297.03;4981040;28;19995;-51
2023/02/21 07:03:41;;;;;;;;;;;;;;;11.36;76.40;100293.34;4982548;28;19973;-54
2023/02/21 07:06:07;;;;;;;;;;;;;;;11.73;78.52;100288.47;4982012;28;19926;-54
2023/02/21 07:08:32;;;;;;;;;;;;;;;10.93;82.23;100242.38;4981172;28;19921;-54
2023/02/21 07:10:57;;;;;;;;;;;;;;;10.91;80.19;100243.28;4982730;28;19926;-54
2023/02/21 07:13:23;;;;;;;;;;;;;;;11.22;78.17;100267.75;4981380;28;20398;-53
2023/02/21 07:15:50;;;;;;;;;;;;;;;10.83;80.38;100248.50;4981652;28;20427;-51
2023/02/21 07:18:15;;;;;;;;;;;;;;;11.01;75.97;100275.78;5003748;28;19957;-51
2023/02/21 07:20:40;;;;;;;;;;;;;;;10.86;75.40;100282.84;4983245;28;20016;-54
2023/02/21 07:23:05;;;;;;;;;;;;;;;10.42;74.52;100286.81;4982487;28;19965;-54
2023/02/21 07:25:30;;;;;;;;;;;;;;;10.91;72.11;100325.75;4982293;28;20015;-52
2023/02/21 07:27:56;;;;;;;;;;;;;;;11.38;72.84;100337.16;4980970;28;20214;-54
2023/02/21 07:30:21;;;;;;;;;;;;;;;10.72;72.49;100310.50;4982390;28;20437;-52
2023/02/21 07:32:46;;;;;;;;;;;;;;;10.83;71.49;100328.41;4982330;28;19928;-53
2023/02/21 07:35:11;;;;;;;;;;;;;;;10.61;73.94;100323.50;4982237;28;19926;-55
2023/02/21 07:37:37;;;;;;;;;;;;;;;11.21;70.39;100360.59;4981329;28;20020;-52
2023/02/21 07:40:02;;;;;;;;;;;;;;;11.38;73.45;100345.78;4982212;28;19922;-52
2023/02/21 07:42:28;;;;;;;;;;;;;;;10.75;76.43;100300.16;4982316;28;19926;-54
2023/02/21 07:44:54;;;;;;;;;;;;;;;10.98;74.24;100322.22;4981788;28;19945;-54
2023/02/21 07:47:19;;;;;;;;;;;;;;;11.23;72.50;100338.22;4981340;28;19948;-52
2023/02/21 07:49:44;;;;;;;;;;;;;;;10.68;75.70;100296.81;4983511;28;19922;-53
2023/02/21 07:52:09;;;;;;;;;;;;;;;11.03;73.88;100320.44;5009721;28;20382;-53
2023/02/21 07:54:35;;;;;;;;;;;;;;;11.11;71.11;100344.41;4981680;28;20387;-52
2023/02/21 07:57:00;;;;;;;;;;;;;;;11.23;72.69;100338.22;4982858;28;20287;-54
2023/02/21 07:59:25;;;;;;;;;;;;;;;11.32;70.95;100347.56;4979445;28;19924;-51
2023/02/21 08:01:51;;;;;;;;;;;;;;;10.83;76.24;100303.50;4981871;28;19918;-54
2023/02/21 08:04:20;;;;;;;;;;;;;;;11.03;74.70;100320.44;4981808;28;19933;-52
2023/02/21 08:06:45;;;;;;;;;;;;;;;11.57;71.72;100351.53;4980586;28;19922;-52
2023/02/21 08:09:10;;;;;;;;;;;;;;;11.75;74.63;100332.34;4981291;28;20473;-54
2023/02/21 08:11:36;;;;;;;;;;;;;;;10.70;78.18;100273.59;4981562;28;19918;-53
2023/02/21 08:14:01;;;;;;;;;;;;;;;10.73;74.26;100312.22;4981583;28;19961;-52
2023/02/21 08:16:27;;;;;;;;;;;;;;;10.81;73.30;100325.88;4980968;28;19928;-54
2023/02/21 08:18:52;;;;;;;;;;;;;;;11.46;70.66;100363.72;4981018;28;20406;-52
2023/02/21 08:21:17;;;;;;;;;;;;;;;10.82;74.02;100321.56;5014912;28;19995;-55
2023/02/21 08:23:42;;;;;;;;;;;;;;;11.07;69.41;100358.19;4981339;28;19917;-54
2023/02/21 08:26:08;;;;;;;;;;;;;;;10.68;70.33;100360.38;4980466;28;19933;-52
2023/02/21 08:28:33;;;;;;;;;;;;;;;11.45;65.81;100395.56;4997639;28;19917;-53
2023/02/21 08:30:58;;;;;;;;;;;;;;;10.66;71.82;100357.78;4979339;28;19925;-53
2023/02/21 08:33:23;;;;;;;;;;;;;;;11.35;64.69;100406.84;4979000;28;19963;-55
2023/02/21 08:35:49;;;;;;;;;;;;;;;11.72;68.17;100409.78;4979252;28;20008;-52
2023/02/21 08:38:14;;;;;;;;;;;;;;;11.35;71.80;100352.69;4978212;28;20295;-52
2023/02/21 08:40:39;;;;;;;;;;;;;;;11.78;68.97;100375.31;4978977;28;19950;-52
2023/02/21 08:43:05;;;;;;;;;;;;;;;11.37;72.62;100331.16;4979093;28;19922;-53
2023/02/21 08:45:30;;;;;;;;;;;;;;;11.30;72.12;100330.38;4985532;28;20017;-54
2023/02/21 08:47:55;;;;;;;;;;;;;;;11.57;72.36;100342.94;4978449;28;19926;-55
2023/02/21 08:50:21;;;;;;;;;;;;;;;11.74;71.77;100351.25;4980836;28;19917;-54
2023/02/21 08:52:47;;;;;;;;;;;;;;;12.19;72.36;100342.84;5026074;28;20356;-54
2023/02/21 08:55:12;;;;;;;;;;;;;;;11.88;78.86;100281.38;5011733;28;19918;-54
2023/02/21 08:57:37;;;;;;;;;;;;;;;11.85;80.80;100251.28;4978338;28;19928;-52
2023/02/21 09:00:05;;;;;;;;;;;;;;;11.23;82.95;100223.03;4976340;28;19918;-52
2023/02/21 09:02:31;;;;;;;;;;;;;;;11.12;78.02;100247.28;4983232;28;19917;-55
2023/02/21 09:04:57;;;;;;;;;;;;;;;11.43;76.87;100282.06;5004526;28;19918;-54
2023/02/21 09:07:22;;;;;;;;;;;;;;;11.93;73.96;100318.31;4977893;28;19961;-52
2023/02/21 09:09:47;;;;;;;;;;;;;;;11.40;84.42;100239.97;4979033;28;20391;-54
2023/02/21 09:12:13;;;;;;;;;;;;;;;11.87;78.84;100259.00;4976501;28;20016;-52
2023/02/21 09:14:39;;;;;;;;;;;;;;;11.13;81.54;100236.97;5003795;28;20335;-54
2023/02/21 09:17:04;;;;;;;;;;;;;;;11.49;76.35;100275.94;4988058;28;19920;-54
2023/02/21 09:19:30;;;;;;;;;;;;;;;11.69;77.54;100285.97;4987404;28;20518;-54
2023/02/21 09:21:55;;;;;;;;;;;;;;;11.51;75.72;100292.25;4981956;28;19918;-55
2023/02/21 09:24:24;;;;;;;;;;;;;;;11.85;76.34;100307.22;4977780;28;19918;-55
2023/02/21 09:26:53;;;;;;;;;;;;;;;11.07;79.80;100255.09;4977664;28;20024;-51
2023/02/21 09:29:18;;;;;;;;;;;;;;;10.98;75.22;100293.88;4978675;28;19945;-53
2023/02/21 09:31:43;;;;;;;;;;;;;;;11.01;72.99;100322.19;4978579;28;19953;-53
2023/02/21 09:34:08;;;;;;;;;;;;;;;11.05;70.27;100349.63;4977969;28;20085;-54
2023/02/21 09:36:37;;;;;;;;;;;;;;;10.49;67.25;100358.84;4977740;28;19918;-53
2023/02/21 09:39:05;;;;;;;;;;;;;;;10.78;61.33;100417.81;4977654;28;19920;-53
2023/02/21 09:41:30;;;;;;;;;;;;;;;11.02;61.06;100453.63;4978019;28;20907;-53
2023/02/21 09:43:56;;;;;;;;;;;;;;;10.84;58.67;100474.44;4978114;28;20012;-53
2023/02/21 09:46:33;;;;;;;;;;;;;;;10.77;55.86;100503.72;4977034;28;19922;-54
2023/02/21 09:48:58;;;;;;;;;;;;;;;10.80;53.78;100540.59;4979582;28;19926;-52
2023/02/21 09:51:24;;;;;;;;;;;;;;;10.24;54.88;100528.94;4978364;28;19925;-54
2023/02/21 09:53:49;;;;;;;;;;;;;;;10.82;50.01;100593.00;4977750;28;19917;-54
2023/02/21 09:56:20;;;;;;;;;;;;;;;10.68;52.77;100605.13;5019964;28;20004;-53
2023/02/21 09:58:45;;;;;;;;;;;;;;;9.91;54.38;100577.16;5007539;28;20379;-54
2023/02/21 10:01:15;;;;;;;;;;;;;;;10.45;49.90;100673.09;5014029;28;19994;-54
2023/02/21 10:03:45;;;;;;;;;;;;;;;10.59;53.49;100682.47;4978606;28;19937;-55
2023/02/21 10:06:17;;;;;;;;;;;;;;;10.07;55.86;100659.47;5024186;28;20939;-55
2023/02/21 10:08:48;;;;;;;;;;;;;;;10.34;54.94;100690.31;4979269;28;19948;-54
2023/02/21 10:11:16;;;;;;;;;;;;;;;10.68;55.07;100716.78;5000819;28;20234;-54
2023/02/21 10:13:42;;;;;;;;;;;;;;;10.34;56.73;100703.19;4977458;28;19925;-54
2023/02/21 10:16:28;;;;;;;;;;;;;;;10.70;55.73;100737.38;4976571;28;20021;-54
2023/02/21 10:19:12;;;;;;;;;;;;;;;10.76;57.29;100718.44;4978059;28;19921;-54
2023/02/21 10:21:38;;;;;;;;;;;;;;;11.36;56.69;100720.63;4979327;28;19932;-54
2023/02/21 10:24:12;;;;;;;;;;;;;;;10.63;59.34;100640.38;5019699;28;19925;-54
2023/02/21 10:26:40;;;;;;;;;;;;;;;11.30;55.46;100678.56;4982071;28;19921;-55
2023/02/21 10:29:09;;;;;;;;;;;;;;;10.67;57.61;100624.00;4982643;28;19918;-53
2023/02/21 10:31:35;;;;;;;;;;;;;;;10.73;58.73;100617.97;4982551;28;19921;-54
2023/02/21 10:34:01;;;;;;;;;;;;;;;11.33;55.69;100648.44;5016894;28;20835;-54
2023/02/21 10:36:27;;;;;;;;;;;;;;;10.71;59.37;100587.06;5008686;28;20470;-53
2023/02/21 10:39:07;;;;;;;;;;;;;;;11.01;55.44;100605.75;5016191;28;19972;-54
2023/02/21 10:41:34;;;;;;;;;;;;;;;10.52;57.53;100582.91;4981882;28;19921;-55
2023/02/21 10:44:00;;;;;;;;;;;;;;;10.60;56.23;100599.16;5020711;28;19932;-52
2023/02/21 10:46:31;;;;;;;;;;;;;;;10.81;56.00;100617.06;5015004;28;20482;-54
2023/02/21 10:49:12;;;;;;;;;;;;;;;11.25;53.85;100651.09;5018785;28;19972;-53
2023/02/21 10:51:37;;;;;;;;;;;;;;;11.37;57.22;100624.34;5027116;28;19922;-55
2023/02/21 10:54:19;;;;;;;;;;;;;;;11.77;58.04;100609.31;4986510;28;20292;-54
2023/02/21 10:56:44;;;;;;;;;;;;;;;11.46;61.70;100542.56;4982486;28;19968;-54
2023/02/21 10:59:10;;;;;;;;;;;;;;;11.46;62.50;100518.50;4979062;28;20366;-55
2023/02/21 11:01:44;;;;;;;;;;;;;;;11.32;64.07;100490.28;5020039;28;20367;-52
2023/02/21 11:04:19;;;;;;;;;;;;;;;11.44;62.88;100491.84;5006172;28;19922;-53
2023/02/21 11:06:46;;;;;;;;;;;;;;;12.36;65.94;100500.97;4980105;28;19925;-54
2023/02/21 11:09:26;;;;;;;;;;;;;;;11.57;70.43;100410.84;5018655;28;20860;-55
2023/02/21 11:12:01;;;;;;;;;;;;;;;11.40;70.69;100397.31;4988779;28;19922;-51
2023/02/21 11:14:27;;;;;;;;;;;;;;;11.85;69.24;100416.47;4980764;28;19980;-54
2023/02/21 11:17:15;;;;;;;;;;;;;;;11.78;67.71;100424.34;5019159;28;19972;-53
2023/02/21 11:19:44;;;;;;;;;;;;;;;11.94;72.40;100394.88;4985298;28;20143;-55
2023/02/21 11:22:09;;;;;;;;;;;;;;;12.03;74.74;100368.91;4980807;28;19921;-54
2023/02/21 11:25:04;;;;;;;;;;;;;;;11.63;76.16;100340.25;4981953;28;20390;-54
2023/02/21 11:27:30;;;;;;;;;;;;;;;12.18;74.05;100361.78;4993895;28;20448;-55
2023/02/21 11:29:55;;;;;;;;;;;;;;;12.03;73.95;100353.41;5018581;28;20020;-55
2023/02/21 11:32:25;;;;;;;;;;;;;;;11.94;74.35;100345.81;5027334;28;20079;-55
2023/02/21 11:34:50;;;;;;;;;;;;;;;12.02;74.26;100349.16;5021501;28;19921;-54
2023/02/21 11:37:15;;;;;;;;;;;;;;;11.96;74.45;100335.47;4979813;28;20430;-54
2023/02/21 11:39:41;;;;;;;;;;;;;;;12.42;73.42;100356.19;4987442;28;19921;-55
2023/02/21 11:42:23;;;;;;;;;;;;;;;12.03;80.29;100278.53;5014990;28;19918;-56
2023/02/21 11:44:48;;;;;;;;;;;;;;;12.29;78.48;100287.53;4980329;28;19961;-54
2023/02/21 11:47:14;;;;;;;;;;;;;;;11.73;78.28;100274.72;5015916;28;19922;-53
2023/02/21 11:49:47;;;;;;;;;;;;;;;11.63;77.75;100278.31;4981627;28;19929;-54
2023/02/21 11:52:13;;;;;;;;;;;;;;;11.97;73.26;100327.69;5018895;28;19918;-55
2023/02/21 11:54:39;;;;;;;;;;;;;;;12.12;70.50;100348.09;4981255;28;19922;-54
2023/02/21 11:57:23;;;;;;;;;;;;;;;13.42;71.24;100371.53;5016454;28;19917;-54
2023/02/21 11:59:48;;;;;;;;;;;;;;;12.21;81.31;100232.63;4979096;28;19924;-55
2023/02/21 12:02:13;;;;;;;;;;;;;;;11.95;78.88;100241.69;4979667;28;19918;-53
2023/02/21 12:04:57;;;;;;;;;;;;;;;11.80;75.98;100268.56;4979320;28;19922;-55
2023/02/21 12:07:34;;;;;;;;;;;;;;;12.01;72.95;100308.69;4978776;28;19921;-54
2023/02/21 12:10:00;;;;;;;;;;;;;;;12.42;73.88;100320.03;5001022;28;19921;-55
2023/02/21 12:12:30;;;;;;;;;;;;;;;12.38;74.30;100308.03;4980436;28;19924;-55
2023/02/21 12:15:02;;;;;;;;;;;;;;;13.21;71.47;100327.09;4979298;28;20371;-55
2023/02/21 12:17:36;;;;;;;;;;;;;;;12.69;78.41;100255.78;4979200;28;19941;-55
2023/02/21 12:20:01;;;;;;;;;;;;;;;13.48;80.92;100223.84;4979352;28;19918;-55
2023/02/21 12:22:43;;;;;;;;;;;;;;;12.86;84.02;100170.94;4990783;28;19988;-54
2023/02/21 12:25:17;;;;;;;;;;;;;;;12.55;85.38;100148.38;5017729;28;19918;-55
2023/02/21 12:28:12;;;;;;;;;;;;;;;13.45;80.55;100195.47;4991445;28;19921;-55
2023/02/21 12:30:46;;;;;;;;;;;;;;;14.12;84.84;100167.84;4978679;28;20402;-55
2023/02/21 12:33:24;;;;;;;;;;;;;;;12.90;91.23;100089.00;4979354;28;19926;-55
2023/02/21 12:35:53;;;;;;;;;;;;;;;12.86;86.46;100129.56;5003361;28;19925;-56
2023/02/21 12:38:31;;;;;;;;;;;;;;;13.61;85.37;100163.13;4978654;28;20338;-55
2023/02/21 12:41:03;;;;;;;;;;;;;;;12.78;88.99;100118.59;5014003;28;19987;-55
2023/02/21 12:43:47;;;;;;;;;;;;;;;13.55;84.86;100156.41;4979122;28;19917;-55
2023/02/21 12:46:12;;;;;;;;;;;;;;;14.27;92.01;100125.06;4978968;28;19922;-56
2023/02/21 12:48:46;;;;;;;;;;;;;;;12.79;100.00;100014.28;4980059;28;19929;-55
2023/02/21 12:51:16;;;;;;;;;;;;;;;13.95;91.35;100094.91;4980533;28;19925;-55
2023/02/21 12:53:47;;;;;;;;;;;;;;;13.37;99.07;100033.53;5009801;28;19945;-55
2023/02/21 12:56:15;;;;;;;;;;;;;;;14.36;96.93;100046.22;5015649;28;19934;-53
2023/02/21 12:58:45;;;;;;;;;;;;;;;15.03;100.00;99989.63;5015438;28;20391;-55
2023/02/21 13:01:14;;;;;;;;;;;;;;;13.09;100.00;99880.78;5009976;28;19921;-54
2023/02/21 13:03:57;;;;;;;;;;;;;;;13.03;100.00;99913.72;4978659;28;19924;-55
2023/02/21 13:06:29;;;;;;;;;;;;;;;13.11;100.00;99950.56;4977770;28;20607;-54
2023/02/21 13:09:12;;;;;;;;;;;;;;;13.80;100.00;99993.50;4978205;28;19921;-56
2023/02/21 13:11:42;;;;;;;;;;;;;;;13.48;100.00;99954.72;4979044;28;19936;-55
2023/02/21 13:14:12;;;;;;;;;;;;;;;13.62;100.00;99975.06;5017465;28;19922;-56
2023/02/21 13:16:37;;;;;;;;;;;;;;;12.71;100.00;99962.78;5021668;28;20039;-55
2023/02/21 13:19:03;;;;;;;;;;;;;;;12.11;100.00;99977.16;4977747;28;20765;-55
2023/02/21 13:21:29;;;;;;;;;;;;;;;12.19;90.33;100051.03;5021478;28;19918;-56
2023/02/21 13:23:56;;;;;;;;;;;;;;;12.86;85.17;100124.41;4977642;28;19925;-55
2023/02/21 13:26:21;;;;;;;;;;;;;;;12.51;91.27;100092.47;5012448;28;19925;-56
2023/02/21 13:28:50;;;;;;;;;;;;;;;13.28;88.44;100115.69;4978452;28;19937;-54
2023/02/21 13:31:23;;;;;;;;;;;;;;;13.44;89.31;100100.63;5015208;28;19929;-55
2023/02/21 13:33:58;;;;;;;;;;;;;;;12.40;91.20;100053.09;4982623;28;20005;-56
2023/02/21 13:36:27;;;;;;;;;;;;;;;13.84;91.02;100099.56;5016327;28;20020;-54
2023/02/21 13:39:07;;;;;;;;;;;;;;;13.72;95.88;100054.97;4977842;28;19944;-55
2023/02/21 13:41:34;;;;;;;;;;;;;;;13.66;100.00;99997.34;4980815;28;20389;-56
2023/02/21 13:43:59;;;;;;;;;;;;;;;12.50;100.00;99940.09;5003796;28;19928;-56
2023/02/21 13:46:45;;;;;;;;;;;;;;;12.73;94.82;100004.13;4977022;28;19921;-55
2023/02/21 13:49:29;;;;;;;;;;;;;;;12.53;91.96;100033.88;4979670;28;19926;-56
2023/02/21 13:51:57;;;;;;;;;;;;;;;12.85;93.40;100050.34;4977754;28;19955;-56
2023/02/21 13:54:23;;;;;;;;;;;;;;;12.88;90.10;100055.41;5015819;28;20736;-55
2023/02/21 13:56:48;;;;;;;;;;;;;;;12.07;89.90;100052.13;4997458;28;19961;-56
2023/02/21 13:59:22;;;;;;;;;;;;;;;12.38;82.45;100111.72;4975489;28;20019;-55
2023/02/21 14:01:50;;;;;;;;;;;;;;;12.32;78.11;100154.03;4978158;28;19922;-55
2023/02/21 14:04:34;;;;;;;;;;;;;;;12.20;72.76;100185.28;5015413;28;19924;-52
2023/02/21 14:07:00;;;;;;;;;;;;;;;11.97;70.98;100205.50;4976890;28;20284;-55
2023/02/21 14:09:25;;;;;;;;;;;;;;;12.02;69.67;100229.50;4975898;28;20016;-56
2023/02/21 14:11:50;;;;;;;;;;;;;;;12.55;63.74;100282.75;4977665;28;20009;-54
2023/02/21 14:14:19;;;;;;;;;;;;;;;12.01;67.97;100249.31;5009240;28;20024;-53
2023/02/21 14:16:47;;;;;;;;;;;;;;;12.13;60.20;100302.47;4976568;28;19914;-56
2023/02/21 14:19:23;;;;;;;;;;;;;;;12.38;54.76;100357.13;4978067;28;20848;-56
2023/02/21 14:21:50;;;;;;;;;;;;;;;13.10;53.94;100402.31;5023386;28;19917;-56
2023/02/21 14:24:16;;;;;;;;;;;;;;;13.01;62.74;100339.59;5004414;28;20008;-56
2023/02/21 14:26:41;;;;;;;;;;;;;;;12.82;64.42;100290.84;5020936;28;19925;-55
2023/02/21 14:29:07;;;;;;;;;;;;;;;12.74;63.25;100300.47;4981670;28;19940;-55
2023/02/21 14:31:44;;;;;;;;;;;;;;;13.80;63.46;100319.72;4977385;28;20765;-55
2023/02/21 14:34:10;;;;;;;;;;;;;;;13.32;72.99;100218.19;4977098;28;20358;-55
2023/02/21 14:36:35;;;;;;;;;;;;;;;12.75;73.50;100178.97;4976982;28;19952;-56
2023/02/21 14:39:00;;;;;;;;;;;;;;;12.21;69.66;100193.88;5013989;28;19956;-56
2023/02/21 14:41:29;;;;;;;;;;;;;;;12.52;64.67;100262.16;5015505;28;20007;-56
2023/02/21 14:43:57;;;;;;;;;;;;;;;12.55;63.42;100276.72;4981491;28;20515;-55
2023/02/21 14:46:40;;;;;;;;;;;;;;;12.26;63.47;100283.28;4976628;28;19925;-56
2023/02/21 14:49:23;;;;;;;;;;;;;;;12.22;61.27;100301.44;5010214;28;19922;-56
2023/02/21 14:51:51;;;;;;;;;;;;;;;12.60;58.83;100333.50;4977306;28;19949;-55
2023/02/21 14:54:28;;;;;;;;;;;;;;;12.36;60.69;100314.97;4977080;28;19924;-56
2023/02/21 14:56:59;;;;;;;;;;;;;;;12.53;58.33;100341.34;4977031;28;19924;-55